Time;durP1;ratioP1;P1;durP2;ratioP2;P2;SDS_P1;SDS_P2;PMS_P1;PMS_P2;Temp;Humidity;BMP_temperature;BMP_pressure;BME280_temperature;BME280_humidity;BME280_pressure;Samples;Min_cycle;Max_cycle;Signal;HPM_P1;HPM_P2
2022/05/31 00:01:22;;;;;;;;;;;7.70;99.90;;;;;;4961837;28;19926;-69
2022/05/31 00:03:48;;;;;;;;;;;7.70;99.90;;;;;;4964835;28;20008;-69
2022/05/31 00:06:14;;;;;;;;;;;7.80;99.90;;;;;;4962285;28;19925;-69
2022/05/31 00:08:39;;;;;;;;;;;7.60;99.90;;;;;;4964539;28;20025;-70
2022/05/31 00:11:05;;;;;;;;;;;7.70;99.90;;;;;;4951401;28;20335;-70
2022/05/31 00:13:30;;;;;;;;;;;7.60;99.90;;;;;;4965905;28;19925;-70
2022/05/31 00:15:56;;;;;;;;;;;7.50;99.90;;;;;;4951216;28;19969;-69
2022/05/31 00:18:21;;;;;;;;;;;7.60;99.90;;;;;;4968177;28;20042;-69
2022/05/31 00:20:47;;;;;;;;;;;7.50;99.90;;;;;;4966921;28;19926;-69
2022/05/31 00:23:13;;;;;;;;;;;7.60;99.90;;;;;;4969624;28;19937;-69
2022/05/31 00:25:38;;;;;;;;;;;7.60;99.90;;;;;;4983610;28;19926;-69
2022/05/31 00:28:04;;;;;;;;;;;7.20;99.90;;;;;;4967477;28;19980;-69
2022/05/31 00:30:30;;;;;;;;;;;7.60;99.90;;;;;;4968486;28;19922;-69
2022/05/31 00:32:56;;;;;;;;;;;7.70;99.90;;;;;;4984128;28;19948;-69
2022/05/31 00:35:23;;;;;;;;;;;7.70;99.90;;;;;;4966927;28;19930;-70
2022/05/31 00:37:48;;;;;;;;;;;7.70;99.90;;;;;;4966101;28;20291;-69
2022/05/31 00:40:16;;;;;;;;;;;7.80;99.90;;;;;;4966876;28;19926;-70
2022/05/31 00:42:59;;;;;;;;;;;7.80;99.90;;;;;;4951195;28;19922;-69
2022/05/31 00:45:29;;;;;;;;;;;7.80;99.90;;;;;;4968082;28;20013;-69
2022/05/31 00:47:55;;;;;;;;;;;7.80;99.90;;;;;;4960646;28;19922;-70
2022/05/31 00:50:26;;;;;;;;;;;7.90;99.90;;;;;;4983679;28;20367;-69
2022/05/31 00:52:54;;;;;;;;;;;7.90;99.90;;;;;;4966182;28;19981;-69
2022/05/31 00:55:30;;;;;;;;;;;7.90;99.90;;;;;;4965394;28;20017;-69
2022/05/31 00:58:03;;;;;;;;;;;7.90;99.90;;;;;;4965365;28;19922;-70
2022/05/31 01:00:29;;;;;;;;;;;7.90;99.90;;;;;;4966371;28;19933;-69
2022/05/31 01:02:56;;;;;;;;;;;8.00;99.90;;;;;;4968117;28;19973;-69
2022/05/31 01:05:24;;;;;;;;;;;7.90;99.90;;;;;;4967712;28;19926;-70
2022/05/31 01:07:49;;;;;;;;;;;7.90;99.90;;;;;;4965685;28;19923;-70
2022/05/31 01:10:15;;;;;;;;;;;8.00;99.90;;;;;;4963849;28;19928;-70
2022/05/31 01:12:42;;;;;;;;;;;8.00;99.90;;;;;;4961872;28;19934;-69
2022/05/31 01:15:09;;;;;;;;;;;8.10;99.90;;;;;;4968111;28;20468;-70
2022/05/31 01:17:34;;;;;;;;;;;8.00;99.90;;;;;;4999672;28;19922;-69
2022/05/31 01:20:10;;;;;;;;;;;8.10;99.90;;;;;;4963909;28;20814;-70
2022/05/31 01:22:39;;;;;;;;;;;8.10;99.90;;;;;;4966039;28;20568;-69
2022/05/31 01:25:11;;;;;;;;;;;8.10;99.90;;;;;;4966775;28;19922;-70
2022/05/31 01:27:40;;;;;;;;;;;8.20;99.90;;;;;;4968006;28;19930;-69
2022/05/31 01:30:07;;;;;;;;;;;8.10;99.90;;;;;;4966209;28;19932;-69
2022/05/31 01:32:35;;;;;;;;;;;8.20;99.90;;;;;;4966147;28;19927;-69
2022/05/31 01:35:02;;;;;;;;;;;8.20;99.90;;;;;;4949823;28;20000;-70
2022/05/31 01:37:42;;;;;;;;;;;8.20;99.90;;;;;;4968616;28;19922;-70
2022/05/31 01:40:09;;;;;;;;;;;8.20;99.90;;;;;;4998441;28;19929;-70
2022/05/31 01:42:43;;;;;;;;;;;8.30;99.90;;;;;;4964740;28;19925;-70
2022/05/31 01:45:21;;;;;;;;;;;8.30;99.90;;;;;;4965733;28;19926;-70
2022/05/31 01:47:46;;;;;;;;;;;8.30;99.90;;;;;;4964053;28;19926;-70
2022/05/31 01:50:20;;;;;;;;;;;8.30;99.90;;;;;;4964216;28;19973;-70
2022/05/31 01:52:46;;;;;;;;;;;8.30;99.90;;;;;;4966408;28;20355;-70
2022/05/31 01:55:12;;;;;;;;;;;8.40;99.90;;;;;;4964728;28;19938;-70
2022/05/31 01:57:40;;;;;;;;;;;8.30;99.90;;;;;;4963716;28;19922;-70
2022/05/31 02:00:08;;;;;;;;;;;8.30;99.90;;;;;;4944691;28;19981;-70
2022/05/31 02:02:33;;;;;;;;;;;8.30;99.90;;;;;;4962437;28;19930;-70
2022/05/31 02:04:59;;;;;;;;;;;8.40;99.90;;;;;;4963704;28;19928;-70
2022/05/31 02:07:25;;;;;;;;;;;8.40;99.90;;;;;;4978512;28;20530;-70
2022/05/31 02:09:52;;;;;;;;;;;8.40;99.90;;;;;;4964585;28;19933;-69
2022/05/31 02:12:18;;;;;;;;;;;8.40;99.90;;;;;;4981053;28;20090;-70
2022/05/31 02:14:44;;;;;;;;;;;8.40;99.90;;;;;;4965743;28;20020;-69
2022/05/31 02:17:10;;;;;;;;;;;8.40;99.90;;;;;;4966390;28;20343;-69
2022/05/31 02:19:36;;;;;;;;;;;8.40;99.90;;;;;;4965088;28;20001;-70
2022/05/31 02:22:03;;;;;;;;;;;8.40;99.90;;;;;;4966982;28;20276;-69
2022/05/31 02:24:28;;;;;;;;;;;8.40;99.90;;;;;;4948457;28;19980;-70
2022/05/31 02:26:54;;;;;;;;;;;8.40;99.90;;;;;;4968319;28;19922;-69
2022/05/31 02:29:22;;;;;;;;;;;8.40;99.90;;;;;;4967202;28;19964;-70
2022/05/31 02:31:48;;;;;;;;;;;8.40;99.90;;;;;;4967999;28;19960;-70
2022/05/31 02:34:15;;;;;;;;;;;8.70;99.90;;;;;;4985035;28;19961;-70
2022/05/31 02:36:41;;;;;;;;;;;8.40;99.90;;;;;;4952705;28;19926;-70
2022/05/31 02:39:07;;;;;;;;;;;8.40;99.90;;;;;;4970123;28;19929;-70
2022/05/31 02:41:33;;;;;;;;;;;8.40;99.90;;;;;;4969203;28;19969;-70
2022/05/31 02:43:58;;;;;;;;;;;8.40;99.90;;;;;;4968255;28;19957;-69
2022/05/31 02:46:25;;;;;;;;;;;8.50;99.90;;;;;;4967935;28;20406;-70
2022/05/31 02:48:50;;;;;;;;;;;8.30;99.90;;;;;;4965958;28;20431;-70
2022/05/31 02:51:16;;;;;;;;;;;8.30;99.90;;;;;;4971414;28;19929;-70
2022/05/31 02:53:42;;;;;;;;;;;8.40;99.90;;;;;;4966791;28;19941;-70
2022/05/31 02:56:08;;;;;;;;;;;8.30;99.90;;;;;;4952986;28;20171;-70
2022/05/31 02:58:34;;;;;;;;;;;8.50;99.90;;;;;;4971850;28;20633;-70
2022/05/31 03:00:59;;;;;;;;;;;8.30;99.90;;;;;;4951230;28;19922;-70
2022/05/31 03:03:25;;;;;;;;;;;8.30;99.90;;;;;;4968753;28;19922;-70
2022/05/31 03:05:51;;;;;;;;;;;8.30;99.90;;;;;;4966660;28;20261;-70
2022/05/31 03:08:17;;;;;;;;;;;8.30;99.90;;;;;;4969017;28;20002;-70
2022/05/31 03:10:45;;;;;;;;;;;8.50;99.90;;;;;;4969419;28;19953;-70
2022/05/31 03:13:15;;;;;;;;;;;8.30;99.90;;;;;;4952684;28;20060;-70
2022/05/31 03:15:41;;;;;;;;;;;8.30;99.90;;;;;;4967600;28;19926;-70
2022/05/31 03:18:13;;;;;;;;;;;8.30;99.90;;;;;;4963005;28;19937;-70
2022/05/31 03:20:38;;;;;;;;;;;8.30;99.90;;;;;;4969011;28;19933;-70
2022/05/31 03:23:07;;;;;;;;;;;8.50;99.90;;;;;;4969428;28;19922;-70
2022/05/31 03:25:33;;;;;;;;;;;8.30;99.90;;;;;;4969708;28;20457;-70
2022/05/31 03:28:01;;;;;;;;;;;8.30;99.90;;;;;;4969695;28;20185;-70
2022/05/31 03:30:26;;;;;;;;;;;8.50;99.90;;;;;;4970102;28;19925;-70
2022/05/31 03:32:53;;;;;;;;;;;8.50;99.90;;;;;;4968958;28;19930;-70
2022/05/31 03:35:18;;;;;;;;;;;8.40;99.90;;;;;;4967872;28;20315;-70
2022/05/31 03:37:44;;;;;;;;;;;8.40;99.90;;;;;;4968647;28;19922;-70
2022/05/31 03:40:10;;;;;;;;;;;8.40;99.90;;;;;;4952538;28;20332;-70
2022/05/31 03:42:36;;;;;;;;;;;8.40;99.90;;;;;;4969379;28;19929;-70
2022/05/31 03:45:01;;;;;;;;;;;8.40;99.90;;;;;;4968118;28;20000;-70
2022/05/31 03:47:27;;;;;;;;;;;8.40;99.90;;;;;;4969134;28;19922;-70
2022/05/31 03:49:52;;;;;;;;;;;8.70;99.90;;;;;;4968699;28;19981;-70
2022/05/31 03:52:18;;;;;;;;;;;8.40;99.90;;;;;;4966156;28;19926;-70
2022/05/31 03:54:44;;;;;;;;;;;8.40;99.90;;;;;;4966073;28;19925;-70
2022/05/31 03:57:14;;;;;;;;;;;8.50;99.90;;;;;;4967232;28;20372;-70
2022/05/31 03:59:40;;;;;;;;;;;8.40;99.90;;;;;;4964246;28;19929;-70
2022/05/31 04:02:06;;;;;;;;;;;8.50;99.90;;;;;;4966147;28;20309;-70
2022/05/31 04:04:31;;;;;;;;;;;8.50;99.90;;;;;;4968029;28;19929;-70
2022/05/31 04:07:00;;;;;;;;;;;8.50;99.90;;;;;;4965976;28;19922;-70
2022/05/31 04:09:26;;;;;;;;;;;8.50;99.90;;;;;;4968052;28;20146;-70
2022/05/31 04:11:54;;;;;;;;;;;8.50;99.90;;;;;;5001098;28;20080;-70
2022/05/31 04:14:20;;;;;;;;;;;8.60;99.90;;;;;;4967370;28;20430;-70
2022/05/31 04:16:46;;;;;;;;;;;8.60;99.90;;;;;;4969181;28;20299;-70
2022/05/31 04:19:11;;;;;;;;;;;8.60;99.90;;;;;;4967486;28;19926;-71
2022/05/31 04:21:37;;;;;;;;;;;8.60;99.90;;;;;;4969899;28;19926;-70
2022/05/31 04:24:08;;;;;;;;;;;8.60;99.90;;;;;;4967197;28;19925;-70
2022/05/31 04:26:36;;;;;;;;;;;8.60;99.90;;;;;;4967150;28;19925;-70
2022/05/31 04:29:02;;;;;;;;;;;8.70;99.90;;;;;;4965744;28;20292;-70
2022/05/31 04:31:28;;;;;;;;;;;8.70;99.90;;;;;;4969436;28;19969;-70
2022/05/31 04:33:53;;;;;;;;;;;8.70;99.90;;;;;;4967953;28;19988;-70
2022/05/31 04:36:20;;;;;;;;;;;8.70;99.90;;;;;;4968058;28;20387;-70
2022/05/31 04:38:45;;;;;;;;;;;8.70;99.90;;;;;;4949986;28;19923;-70
2022/05/31 04:41:15;;;;;;;;;;;8.90;99.90;;;;;;4949798;28;19937;-70
2022/05/31 04:43:41;;;;;;;;;;;8.80;99.90;;;;;;4950922;28;20280;-70
2022/05/31 04:46:11;;;;;;;;;;;8.80;99.90;;;;;;4984306;28;19930;-70
2022/05/31 04:48:37;;;;;;;;;;;8.80;99.90;;;;;;4966735;28;19976;-71
2022/05/31 04:51:02;;;;;;;;;;;8.90;99.90;;;;;;4967673;28;19926;-70
2022/05/31 04:53:28;;;;;;;;;;;8.90;99.90;;;;;;4968028;28;20351;-70
2022/05/31 04:56:00;;;;;;;;;;;9.10;99.90;;;;;;4964290;28;19980;-70
2022/05/31 04:58:26;;;;;;;;;;;9.00;99.90;;;;;;4961236;28;19926;-70
2022/05/31 05:00:51;;;;;;;;;;;9.00;99.90;;;;;;4961919;28;19953;-70
2022/05/31 05:03:17;;;;;;;;;;;9.00;99.90;;;;;;4968272;28;20187;-70
2022/05/31 05:05:42;;;;;;;;;;;9.10;99.90;;;;;;4965757;28;19929;-70
2022/05/31 05:08:08;;;;;;;;;;;9.10;99.90;;;;;;4966309;28;19937;-72
2022/05/31 05:10:34;;;;;;;;;;;9.20;99.90;;;;;;4965834;28;19937;-70
2022/05/31 05:12:59;;;;;;;;;;;9.20;99.90;;;;;;4963869;28;20052;-70
2022/05/31 05:15:25;;;;;;;;;;;9.30;99.90;;;;;;4966797;28;19992;-70
2022/05/31 05:17:50;;;;;;;;;;;9.30;99.90;;;;;;4992088;28;20376;-70
2022/05/31 05:20:16;;;;;;;;;;;9.40;99.90;;;;;;4982287;28;19926;-70
2022/05/31 05:22:42;;;;;;;;;;;9.40;99.90;;;;;;4947075;28;19993;-70
2022/05/31 05:25:08;;;;;;;;;;;9.50;99.90;;;;;;4964338;28;20008;-70
2022/05/31 05:27:33;;;;;;;;;;;9.50;99.90;;;;;;4994896;28;19975;-70
2022/05/31 05:30:41;;;;;;;;;;;9.60;99.90;;;;;;4960905;28;19922;-70
2022/05/31 05:32:48;;;;;;;;;;;9.60;99.90;;;;;;4966876;28;19952;-70
2022/05/31 05:35:13;;;;;;;;;;;9.70;99.90;;;;;;4992033;28;19926;-70
2022/05/31 05:37:39;;;;;;;;;;;9.80;99.90;;;;;;4958181;28;19971;-70
2022/05/31 05:40:05;;;;;;;;;;;9.70;99.90;;;;;;4961417;28;19922;-70
2022/05/31 05:42:30;;;;;;;;;;;9.80;99.90;;;;;;4960460;28;20322;-70
2022/05/31 05:44:56;;;;;;;;;;;9.80;99.90;;;;;;4957156;28;19930;-70
2022/05/31 05:47:22;;;;;;;;;;;9.90;99.90;;;;;;4959242;28;20005;-70
2022/05/31 05:49:48;;;;;;;;;;;9.90;99.90;;;;;;4976084;28;20028;-70
2022/05/31 05:52:15;;;;;;;;;;;9.90;99.90;;;;;;4963746;28;19989;-70
2022/05/31 05:54:41;;;;;;;;;;;10.00;99.90;;;;;;4959414;28;19930;-70
2022/05/31 05:57:06;;;;;;;;;;;10.00;99.90;;;;;;4960216;28;20022;-70
2022/05/31 05:59:32;;;;;;;;;;;10.10;99.90;;;;;;4946469;28;19941;-70
2022/05/31 06:02:08;;;;;;;;;;;10.20;99.90;;;;;;4958629;28;20036;-70
2022/05/31 06:04:37;;;;;;;;;;;9.70;99.90;;;;;;4962009;28;19926;-70
2022/05/31 06:07:11;;;;;;;;;;;10.30;99.90;;;;;;4964675;28;19922;-70
2022/05/31 06:09:38;;;;;;;;;;;10.40;99.90;;;;;;4970298;28;19922;-70
2022/05/31 06:12:06;;;;;;;;;;;10.50;99.90;;;;;;4969992;28;20306;-70
2022/05/31 06:14:32;;;;;;;;;;;10.60;99.90;;;;;;4969981;28;20346;-69
2022/05/31 06:16:59;;;;;;;;;;;10.60;99.90;;;;;;4967577;28;19923;-69
2022/05/31 06:19:28;;;;;;;;;;;10.70;99.90;;;;;;4954922;28;19949;-69
2022/05/31 06:21:54;;;;;;;;;;;10.80;99.90;;;;;;4969287;28;19930;-70
2022/05/31 06:24:20;;;;;;;;;;;10.80;99.90;;;;;;4971582;28;20029;-70
2022/05/31 06:26:46;;;;;;;;;;;10.90;99.90;;;;;;4969835;28;20011;-69
2022/05/31 06:29:11;;;;;;;;;;;11.00;99.90;;;;;;4968971;28;19930;-70
2022/05/31 06:31:37;;;;;;;;;;;11.00;99.90;;;;;;4965956;28;19938;-70
2022/05/31 06:34:03;;;;;;;;;;;11.10;99.90;;;;;;4967736;28;19922;-70
2022/05/31 06:36:29;;;;;;;;;;;11.20;99.90;;;;;;5002806;28;19988;-70
2022/05/31 06:38:55;;;;;;;;;;;11.20;99.90;;;;;;4964940;28;20307;-70
2022/05/31 06:41:20;;;;;;;;;;;11.30;99.90;;;;;;4969479;28;19937;-70
2022/05/31 06:43:46;;;;;;;;;;;11.40;99.90;;;;;;4953853;28;19933;-72
2022/05/31 06:46:12;;;;;;;;;;;11.40;99.90;;;;;;4985596;28;19926;-70
2022/05/31 06:48:37;;;;;;;;;;;11.50;99.90;;;;;;4970701;28;19922;-69
2022/05/31 06:51:07;;;;;;;;;;;11.60;99.90;;;;;;4971559;28;19926;-69
2022/05/31 06:59:02;;;;;;;;;;;11.80;99.90;;;;;;4973186;28;20338;-70
2022/05/31 07:01:31;;;;;;;;;;;11.80;99.90;;;;;;4970282;28;19922;-70
2022/05/31 07:03:59;;;;;;;;;;;11.80;99.90;;;;;;4953540;28;19922;-69
2022/05/31 07:06:24;;;;;;;;;;;12.00;99.90;;;;;;4971171;28;19922;-70
2022/05/31 07:08:50;;;;;;;;;;;12.10;99.90;;;;;;4970026;28;20035;-70
2022/05/31 07:11:16;;;;;;;;;;;12.20;99.90;;;;;;4968304;28;19926;-69
2022/05/31 07:13:41;;;;;;;;;;;12.40;99.90;;;;;;4971319;28;19977;-70
2022/05/31 07:16:07;;;;;;;;;;;12.60;99.90;;;;;;4971514;28;19922;-70
2022/05/31 07:18:33;;;;;;;;;;;12.90;99.90;;;;;;4949806;28;19922;-69
2022/05/31 07:20:58;;;;;;;;;;;13.10;99.90;;;;;;4970308;28;19933;-68
2022/05/31 07:23:25;;;;;;;;;;;13.20;99.90;;;;;;4969400;28;19926;-70
2022/05/31 07:25:52;;;;;;;;;;;13.30;99.90;;;;;;4969543;28;19936;-70
2022/05/31 07:28:18;;;;;;;;;;;13.30;99.90;;;;;;4966989;28;19922;-69
2022/05/31 07:30:43;;;;;;;;;;;13.50;99.90;;;;;;4966041;28;19926;-70
2022/05/31 07:33:11;;;;;;;;;;;13.50;99.90;;;;;;4969567;28;20371;-69
2022/05/31 07:35:38;;;;;;;;;;;13.80;99.90;;;;;;4965663;28;19926;-70
2022/05/31 07:38:04;;;;;;;;;;;13.70;99.90;;;;;;4963046;28;19933;-70
2022/05/31 07:40:30;;;;;;;;;;;14.00;99.90;;;;;;4965691;28;19922;-70
2022/05/31 07:42:55;;;;;;;;;;;14.40;99.90;;;;;;4967591;28;19926;-69
2022/05/31 07:45:21;;;;;;;;;;;15.00;99.90;;;;;;4967474;28;19925;-70
2022/05/31 07:47:47;;;;;;;;;;;15.40;99.90;;;;;;4969886;28;20028;-70
2022/05/31 07:50:12;;;;;;;;;;;15.70;99.90;;;;;;4983011;28;19941;-69
2022/05/31 07:52:38;;;;;;;;;;;15.90;99.90;;;;;;4966292;28;19933;-69
2022/05/31 07:55:04;;;;;;;;;;;15.90;99.90;;;;;;4963612;28;19926;-69
2022/05/31 08:00:14;;;;;;;;;;;16.20;99.90;;;;;;4968127;28;20009;-69
2022/05/31 08:02:39;;;;;;;;;;;16.40;99.90;;;;;;4967802;28;20008;-69
2022/05/31 08:05:06;;;;;;;;;;;16.40;99.90;;;;;;4969137;28;19969;-69
2022/05/31 08:07:31;;;;;;;;;;;16.30;99.90;;;;;;4969074;28;19930;-69
2022/05/31 08:09:57;;;;;;;;;;;16.20;99.90;;;;;;4968613;28;20364;-70
2022/05/31 08:12:22;;;;;;;;;;;16.30;99.90;;;;;;4967164;28;19961;-69
2022/05/31 08:14:48;;;;;;;;;;;16.40;99.90;;;;;;4970115;28;19926;-69
2022/05/31 08:17:13;;;;;;;;;;;16.60;99.90;;;;;;4970756;28;19969;-69
2022/05/31 08:19:39;;;;;;;;;;;17.20;99.90;;;;;;4970484;28;19926;-70
2022/05/31 08:22:05;;;;;;;;;;;16.80;99.90;;;;;;4967741;28;19979;-69
2022/05/31 08:24:31;;;;;;;;;;;16.80;99.90;;;;;;4974908;28;19965;-70
2022/05/31 08:26:59;;;;;;;;;;;16.70;99.90;;;;;;4968031;28;19925;-69
2022/05/31 08:29:25;;;;;;;;;;;16.70;99.90;;;;;;4968469;28;19962;-69
2022/05/31 08:31:50;;;;;;;;;;;16.70;99.90;;;;;;4968700;28;19972;-69
2022/05/31 08:34:16;;;;;;;;;;;16.70;99.90;;;;;;4967469;28;19925;-69
2022/05/31 08:36:42;;;;;;;;;;;16.70;99.90;;;;;;4968235;28;19926;-69
2022/05/31 08:39:07;;;;;;;;;;;16.70;99.90;;;;;;4966872;28;20334;-69
2022/05/31 08:41:42;;;;;;;;;;;16.80;99.90;;;;;;4966882;28;20017;-69
2022/05/31 08:44:27;;;;;;;;;;;17.00;99.90;;;;;;4966937;28;19985;-69
2022/05/31 08:47:15;;;;;;;;;;;17.30;99.90;;;;;;4965618;28;19925;-70
2022/05/31 08:52:42;;;;;;;;;;;18.40;99.90;;;;;;4968942;28;19969;-69
2022/05/31 08:58:03;;;;;;;;;;;19.40;99.90;;;;;;4965134;28;19997;-69
2022/05/31 09:00:31;;;;;;;;;;;19.70;99.90;;;;;;4965328;28;20029;-69
2022/05/31 09:03:03;;;;;;;;;;;19.90;99.90;;;;;;4969546;28;19929;-70
2022/05/31 09:05:35;;;;;;;;;;;20.00;99.90;;;;;;4967283;28;20276;-70
2022/05/31 09:08:01;;;;;;;;;;;20.10;99.90;;;;;;4980979;28;19923;-69
2022/05/31 09:10:33;;;;;;;;;;;20.20;99.90;;;;;;4968230;28;20517;-69
2022/05/31 09:13:06;;;;;;;;;;;20.20;99.90;;;;;;4967616;28;19925;-69
2022/05/31 09:15:31;;;;;;;;;;;20.30;99.90;;;;;;4962122;28;19933;-70
2022/05/31 09:18:33;;;;;;;;;;;20.40;99.90;;;;;;4958770;28;19926;-69
2022/05/31 09:21:00;;;;;;;;;;;20.50;99.90;;;;;;4997523;28;20030;-70
2022/05/31 09:23:28;;;;;;;;;;;20.10;99.90;;;;;;4965265;28;20823;-70
2022/05/31 09:26:09;;;;;;;;;;;19.70;99.90;;;;;;4959247;28;19926;-69
2022/05/31 09:28:37;;;;;;;;;;;19.80;99.90;;;;;;4963323;28;19926;-69
2022/05/31 09:31:09;;;;;;;;;;;20.10;99.90;;;;;;4960497;28;19977;-69
2022/05/31 09:33:36;;;;;;;;;;;20.00;99.90;;;;;;4959237;28;19933;-69
2022/05/31 09:36:11;;;;;;;;;;;19.70;99.90;;;;;;4962657;28;19930;-69
2022/05/31 09:38:42;;;;;;;;;;;19.70;99.90;;;;;;4961134;28;19926;-69
2022/05/31 09:41:08;;;;;;;;;;;19.50;99.90;;;;;;4962313;28;19973;-69
2022/05/31 09:43:40;;;;;;;;;;;19.30;99.90;;;;;;4961663;28;19925;-69
2022/05/31 09:46:16;;;;;;;;;;;19.10;99.90;;;;;;4971334;28;19956;-69
2022/05/31 09:48:46;;;;;;;;;;;18.90;99.90;;;;;;4962751;28;20526;-69
2022/05/31 09:51:15;;;;;;;;;;;18.80;99.90;;;;;;4962654;28;19973;-69
2022/05/31 09:59:11;;;;;;;;;;;18.60;99.90;;;;;;4968920;28;20310;-69
2022/05/31 10:01:42;;;;;;;;;;;18.80;99.90;;;;;;4967202;28;20012;-69
2022/05/31 10:04:09;;;;;;;;;;;18.90;99.90;;;;;;4968176;28;19922;-69
2022/05/31 10:06:49;;;;;;;;;;;18.80;99.90;;;;;;4967821;28;19929;-69
2022/05/31 10:09:16;;;;;;;;;;;18.60;99.90;;;;;;4969611;28;19922;-69
2022/05/31 10:11:45;;;;;;;;;;;18.40;99.90;;;;;;4967741;28;19933;-69
2022/05/31 10:14:34;;;;;;;;;;;18.40;99.90;;;;;;4969589;28;19929;-69
2022/05/31 10:17:35;;;;;;;;;;;18.50;99.90;;;;;;4970917;28;19984;-69
2022/05/31 10:20:12;;;;;;;;;;;18.90;99.90;;;;;;4957959;28;19926;-69
2022/05/31 10:22:47;;;;;;;;;;;19.60;99.90;;;;;;4964874;28;20025;-69
2022/05/31 10:25:21;;;;;;;;;;;19.90;98.20;;;;;;4961011;28;19976;-69
2022/05/31 10:27:47;;;;;;;;;;;20.00;98.00;;;;;;4942243;28;19926;-69
2022/05/31 10:30:18;;;;;;;;;;;20.00;98.00;;;;;;4979878;28;19937;-69
2022/05/31 10:32:48;;;;;;;;;;;20.20;98.70;;;;;;4977729;28;19926;-69
2022/05/31 10:35:22;;;;;;;;;;;20.40;94.30;;;;;;4962656;28;20280;-70
2022/05/31 10:37:47;;;;;;;;;;;20.60;95.10;;;;;;4960775;28;19933;-69
2022/05/31 10:40:16;;;;;;;;;;;20.50;93.30;;;;;;4963229;28;20205;-69
2022/05/31 10:42:44;;;;;;;;;;;20.50;93.50;;;;;;4947424;28;20032;-69
2022/05/31 10:45:19;;;;;;;;;;;20.40;90.90;;;;;;4963389;28;20280;-69
2022/05/31 10:47:45;;;;;;;;;;;20.30;90.20;;;;;;4945724;28;20023;-69
2022/05/31 10:50:11;;;;;;;;;;;20.10;91.00;;;;;;4963416;28;20426;-69
2022/05/31 10:52:37;;;;;;;;;;;19.90;88.80;;;;;;4962654;28;19970;-69
2022/05/31 10:55:18;;;;;;;;;;;19.70;91.30;;;;;;4964537;28;19926;-69
2022/05/31 10:57:48;;;;;;;;;;;19.40;92.40;;;;;;4966594;28;20398;-69
2022/05/31 11:00:17;;;;;;;;;;;19.10;93.80;;;;;;4963019;28;20058;-69
2022/05/31 11:02:46;;;;;;;;;;;18.80;93.50;;;;;;4965846;28;19932;-68
2022/05/31 11:05:13;;;;;;;;;;;18.50;92.90;;;;;;4965923;28;19936;-70
2022/05/31 11:13:53;;;;;;;;;;;18.10;96.00;;;;;;4968726;28;20017;-69
2022/05/31 11:16:25;;;;;;;;;;;18.00;96.10;;;;;;4967477;28;19926;-68
2022/05/31 11:19:19;;;;;;;;;;;18.00;97.30;;;;;;4970746;28;19926;-68
2022/05/31 11:21:58;;;;;;;;;;;17.90;97.50;;;;;;4967299;28;19980;-69
2022/05/31 11:24:36;;;;;;;;;;;18.00;96.90;;;;;;4952118;28;20012;-68
2022/05/31 11:27:20;;;;;;;;;;;18.10;96.50;;;;;;4968915;28;19972;-69
2022/05/31 11:29:49;;;;;;;;;;;18.30;96.90;;;;;;4967605;28;19922;-68
2022/05/31 11:32:29;;;;;;;;;;;18.50;98.10;;;;;;4984293;28;19991;-68
2022/05/31 11:35:17;;;;;;;;;;;18.60;96.60;;;;;;4967662;28;20009;-68
2022/05/31 11:37:42;;;;;;;;;;;18.70;96.70;;;;;;4970220;28;19930;-69
2022/05/31 11:40:17;;;;;;;;;;;18.70;96.20;;;;;;4985203;28;19996;-68
2022/05/31 11:43:01;;;;;;;;;;;18.80;96.10;;;;;;4969385;28;20390;-68
2022/05/31 11:45:45;;;;;;;;;;;18.90;96.40;;;;;;4966784;28;19933;-69
2022/05/31 11:48:14;;;;;;;;;;;19.00;95.30;;;;;;4962166;28;19930;-69
2022/05/31 11:50:53;;;;;;;;;;;18.90;92.90;;;;;;4963620;28;20023;-69
2022/05/31 11:53:38;;;;;;;;;;;18.80;93.20;;;;;;4964346;28;20222;-69
2022/05/31 11:56:07;;;;;;;;;;;18.70;93.50;;;;;;4958842;28;20280;-69
2022/05/31 11:58:59;;;;;;;;;;;18.50;93.40;;;;;;4948724;28;19926;-69
2022/05/31 12:01:29;;;;;;;;;;;18.50;94.00;;;;;;4976831;28;19934;-69
2022/05/31 12:04:01;;;;;;;;;;;18.40;97.00;;;;;;4959934;28;19925;-69
2022/05/31 12:06:36;;;;;;;;;;;18.20;95.90;;;;;;4964270;28;19934;-69
2022/05/31 12:09:16;;;;;;;;;;;18.10;93.60;;;;;;4960720;28;20379;-68
2022/05/31 12:11:41;;;;;;;;;;;17.80;94.50;;;;;;4956366;28;19937;-69
2022/05/31 12:14:09;;;;;;;;;;;17.60;94.20;;;;;;4963088;28;19929;-69
2022/05/31 12:16:36;;;;;;;;;;;17.50;94.80;;;;;;4961725;28;19927;-68
2022/05/31 12:19:13;;;;;;;;;;;17.30;95.00;;;;;;4964302;28;19930;-68
2022/05/31 12:21:43;;;;;;;;;;;17.20;95.60;;;;;;4963071;28;19930;-68
2022/05/31 12:24:21;;;;;;;;;;;17.20;96.10;;;;;;4959404;28;19989;-69
2022/05/31 12:26:50;;;;;;;;;;;17.10;96.70;;;;;;4962840;28;19930;-69
2022/05/31 12:29:15;;;;;;;;;;;17.10;98.90;;;;;;4962578;28;19925;-68
2022/05/31 12:31:41;;;;;;;;;;;17.10;94.80;;;;;;4978747;28;19938;-68
2022/05/31 12:34:11;;;;;;;;;;;17.10;95.70;;;;;;4964247;28;20319;-69
2022/05/31 12:36:57;;;;;;;;;;;17.10;97.30;;;;;;4946254;28;20021;-69
2022/05/31 12:39:27;;;;;;;;;;;17.20;97.30;;;;;;4961439;28;19952;-68
2022/05/31 12:41:53;;;;;;;;;;;17.30;97.70;;;;;;4965446;28;19957;-68
2022/05/31 12:44:33;;;;;;;;;;;17.40;97.10;;;;;;4963153;28;19930;-68
2022/05/31 12:47:11;;;;;;;;;;;17.50;97.80;;;;;;4964057;28;19926;-69
2022/05/31 12:49:47;;;;;;;;;;;17.60;96.00;;;;;;4960417;28;19981;-69
2022/05/31 12:54:45;;;;;;;;;;;17.60;96.00;;;;;;4959328;28;20020;-69
2022/05/31 12:57:19;;;;;;;;;;;17.70;94.70;;;;;;4965233;28;19926;-69
2022/05/31 12:59:47;;;;;;;;;;;17.70;94.50;;;;;;4960121;28;20008;-68
2022/05/31 13:02:21;;;;;;;;;;;17.80;94.60;;;;;;4977756;28;19933;-69
2022/05/31 13:04:55;;;;;;;;;;;17.80;94.60;;;;;;4961970;28;19933;-68
2022/05/31 13:07:38;;;;;;;;;;;17.80;94.70;;;;;;4962692;28;20519;-68
2022/05/31 13:10:23;;;;;;;;;;;17.80;94.00;;;;;;4962786;28;19929;-68
2022/05/31 13:21:06;;;;;;;;;;;17.70;93.00;;;;;;4960730;28;19933;-68
2022/05/31 13:23:37;;;;;;;;;;;17.70;92.50;;;;;;4961193;28;21538;-68
2022/05/31 13:26:12;;;;;;;;;;;17.60;92.00;;;;;;4961819;28;20502;-68
2022/05/31 13:28:42;;;;;;;;;;;17.60;91.70;;;;;;4964784;28;19930;-68
2022/05/31 13:31:13;;;;;;;;;;;17.60;93.50;;;;;;4965238;28;20375;-68
2022/05/31 13:33:39;;;;;;;;;;;17.50;89.60;;;;;;4967124;28;20010;-69
2022/05/31 13:36:10;;;;;;;;;;;17.40;88.60;;;;;;4956601;28;19930;-69
2022/05/31 13:38:38;;;;;;;;;;;17.40;88.30;;;;;;4961938;28;19922;-68
2022/05/31 13:41:06;;;;;;;;;;;17.30;91.10;;;;;;4965255;28;20358;-69
2022/05/31 13:43:38;;;;;;;;;;;17.30;92.00;;;;;;4965238;28;19936;-68
2022/05/31 13:46:11;;;;;;;;;;;17.20;92.50;;;;;;4964528;28;19934;-69
2022/05/31 13:48:38;;;;;;;;;;;17.30;92.50;;;;;;4965508;28;20651;-68
2022/05/31 13:51:06;;;;;;;;;;;17.20;91.70;;;;;;4964711;28;20276;-68
2022/05/31 13:53:37;;;;;;;;;;;17.20;92.50;;;;;;4965176;28;19981;-68
2022/05/31 13:56:02;;;;;;;;;;;17.20;91.90;;;;;;4962587;28;20012;-68
2022/05/31 13:58:29;;;;;;;;;;;17.30;93.80;;;;;;4982591;28;19978;-68
2022/05/31 14:00:55;;;;;;;;;;;17.40;92.70;;;;;;4968042;28;19937;-68
2022/05/31 14:03:23;;;;;;;;;;;17.40;91.80;;;;;;4963034;28;20017;-68
2022/05/31 14:05:53;;;;;;;;;;;17.40;92.10;;;;;;4962249;28;19930;-68
2022/05/31 14:08:24;;;;;;;;;;;17.40;93.40;;;;;;4961330;28;20004;-68
2022/05/31 14:10:50;;;;;;;;;;;17.50;93.10;;;;;;4965897;28;19925;-68
2022/05/31 14:13:21;;;;;;;;;;;17.50;94.70;;;;;;4962350;28;19974;-68
2022/05/31 14:15:47;;;;;;;;;;;17.50;95.60;;;;;;4959941;28;19926;-68
2022/05/31 14:18:13;;;;;;;;;;;17.60;97.20;;;;;;4966602;28;20301;-68
2022/05/31 14:20:44;;;;;;;;;;;17.70;97.50;;;;;;4965745;28;19926;-68
2022/05/31 14:23:18;;;;;;;;;;;17.70;96.80;;;;;;4964253;28;20398;-68
2022/05/31 14:25:45;;;;;;;;;;;17.70;94.30;;;;;;4981373;28;19926;-68
2022/05/31 14:28:18;;;;;;;;;;;17.70;95.00;;;;;;4967825;28;19972;-68
2022/05/31 14:30:50;;;;;;;;;;;17.70;96.60;;;;;;4968702;28;20470;-68
2022/05/31 14:33:15;;;;;;;;;;;17.70;98.30;;;;;;4986524;28;20028;-68
2022/05/31 14:35:45;;;;;;;;;;;17.80;97.90;;;;;;4969434;28;20057;-68
2022/05/31 14:38:15;;;;;;;;;;;17.80;97.80;;;;;;4968989;28;19977;-68
2022/05/31 14:40:41;;;;;;;;;;;17.90;96.60;;;;;;4985073;28;19929;-68
2022/05/31 14:43:09;;;;;;;;;;;17.90;97.40;;;;;;4965379;28;19925;-69
2022/05/31 14:45:46;;;;;;;;;;;17.90;98.20;;;;;;4962960;28;19926;-68
2022/05/31 14:48:31;;;;;;;;;;;17.90;96.70;;;;;;4964331;28;19926;-68
2022/05/31 14:50:58;;;;;;;;;;;17.70;95.90;;;;;;4985088;28;20383;-68
2022/05/31 14:53:32;;;;;;;;;;;17.80;97.90;;;;;;4970067;28;19985;-68
2022/05/31 14:55:57;;;;;;;;;;;17.60;93.70;;;;;;4967150;28;19929;-68
2022/05/31 14:58:41;;;;;;;;;;;17.60;93.30;;;;;;4965907;28;19926;-68
2022/05/31 15:01:25;;;;;;;;;;;17.50;94.10;;;;;;4995789;28;19929;-68
2022/05/31 15:03:57;;;;;;;;;;;17.40;94.10;;;;;;4964778;28;19966;-68
2022/05/31 15:06:29;;;;;;;;;;;17.40;93.20;;;;;;4960707;28;20021;-68
2022/05/31 15:09:10;;;;;;;;;;;17.40;93.20;;;;;;4964327;28;20389;-68